Time;durP1;ratioP1;P1;durP2;ratioP2;P2;SDS_P1;SDS_P2;PMS_P1;PMS_P2;Temp;Humidity;BMP_temperature;BMP_pressure;BME280_temperature;BME280_humidity;BME280_pressure;Samples;Min_cycle;Max_cycle;Signal;HPM_P1;HPM_P2
2022/10/04 00:01:59;;;;;;;8.97;2.67;;;;;;;9.63;100.00;99821.66;1687209;84;21797;-60
2022/10/04 00:04:30;;;;;;;5.77;2.20;;;;;;;9.71;100.00;99816.32;1684321;84;21865;-68
2022/10/04 00:07:05;;;;;;;5.60;2.70;;;;;;;9.74;100.00;99822.45;1682308;85;21296;-61
2022/10/04 00:09:44;;;;;;;4.07;2.33;;;;;;;9.72;100.00;99820.03;1681927;85;20976;-61
2022/10/04 00:12:25;;;;;;;6.03;2.33;;;;;;;9.81;100.00;99819.41;1681394;85;21304;-69
2022/10/04 00:14:58;;;;;;;3.80;1.83;;;;;;;9.88;100.00;99824.15;1682047;85;21232;-61
2022/10/04 00:17:30;;;;;;;5.20;2.53;;;;;;;9.97;100.00;99816.52;1682007;85;21232;-61
2022/10/04 00:19:57;;;;;;;5.83;2.43;;;;;;;9.97;100.00;99816.52;1702363;83;21893;-66
2022/10/04 00:22:29;;;;;;;8.47;2.83;;;;;;;10.02;100.00;99824.26;1707703;82;21430;-63
2022/10/04 00:25:16;;;;;;;5.33;2.43;;;;;;;9.99;100.00;99826.23;1711196;82;21451;-61
2022/10/04 00:27:42;;;;;;;6.00;2.37;;;;;;;9.99;100.00;99823.63;1707335;84;21260;-61
2022/10/04 00:30:22;;;;;;;5.27;2.50;;;;;;;10.04;100.00;99828.77;1675614;84;21836;-68
2022/10/04 00:33:02;;;;;;;5.37;2.10;;;;;;;10.01;100.00;99827.87;1675566;84;21447;-60
2022/10/04 00:35:35;;;;;;;7.70;2.73;;;;;;;9.94;100.00;99825.20;1708379;83;21424;-61
2022/10/04 00:38:16;;;;;;;6.30;2.97;;;;;;;10.05;100.00;99823.88;1707982;83;21469;-60
2022/10/04 00:41:03;;;;;;;9.23;2.53;;;;;;;9.99;100.00;99830.64;1706967;84;21347;-60
2022/10/04 00:43:42;;;;;;;6.47;2.30;;;;;;;9.99;100.00;99830.64;1680193;84;21837;-60
2022/10/04 00:46:17;;;;;;;10.40;2.80;;;;;;;10.00;100.00;99834.88;1679876;84;21376;-60
2022/10/04 00:48:52;;;;;;;8.77;2.63;;;;;;;10.06;100.00;99839.31;1707927;84;21914;-60
2022/10/04 00:51:44;;;;;;;7.37;2.60;;;;;;;10.06;100.00;99841.11;1707833;84;22262;-60
2022/10/04 00:54:20;;;;;;;8.57;2.53;;;;;;;10.11;100.00;99837.43;1708390;83;21190;-61
2022/10/04 00:56:59;;;;;;;7.33;2.63;;;;;;;10.23;100.00;99839.84;1707883;83;21320;-69
2022/10/04 00:59:34;;;;;;;3.73;2.37;;;;;;;10.15;100.00;99839.49;1708388;84;21296;-60
2022/10/04 01:02:09;;;;;;;5.90;2.13;;;;;;;10.15;100.00;99839.49;1680066;84;21601;-61
2022/10/04 01:04:41;;;;;;;6.17;2.73;;;;;;;10.15;100.00;99839.95;1711804;83;21266;-60
2022/10/04 01:07:09;;;;;;;4.63;2.70;;;;;;;10.16;100.00;99833.78;1721232;83;21420;-61
2022/10/04 01:09:48;;;;;;;5.20;2.90;;;;;;;10.16;100.00;99833.78;1721305;83;21807;-61
2022/10/04 01:12:59;;;;;;;6.33;2.43;;;;;;;10.16;100.00;99829.38;1721418;83;21359;-69
2022/10/04 01:15:34;;;;;;;5.90;2.57;;;;;;;10.15;100.00;99829.07;1721248;83;22058;-61
2022/10/04 01:18:14;;;;;;;6.57;2.10;;;;;;;10.15;100.00;99825.16;1720811;83;21328;-60
2022/10/04 01:20:56;;;;;;;5.93;2.30;;;;;;;10.28;100.00;99818.45;1721246;83;21309;-61
2022/10/04 01:23:40;;;;;;;5.85;2.72;;;;;;;10.28;100.00;99818.45;1720682;83;21586;-65
2022/10/04 01:26:31;;;;;;;6.97;2.83;;;;;;;10.26;100.00;99814.72;1721298;83;21030;-61
2022/10/04 01:29:01;;;;;;;5.10;2.30;;;;;;;10.27;100.00;99811.64;1716842;83;21560;-61
2022/10/04 01:31:28;;;;;;;5.60;2.63;;;;;;;10.26;100.00;99805.60;1721255;83;21241;-61
2022/10/04 01:33:55;;;;;;;5.47;2.60;;;;;;;10.31;100.00;99809.76;1721458;83;21230;-64
2022/10/04 01:36:22;;;;;;;6.97;2.73;;;;;;;10.37;100.00;99811.58;1721022;83;21377;-68
2022/10/04 01:38:50;;;;;;;5.93;2.53;;;;;;;10.34;100.00;99806.77;1720750;83;21782;-60
2022/10/04 01:41:20;;;;;;;9.50;2.67;;;;;;;10.38;100.00;99808.00;1694810;83;21578;-60
2022/10/04 01:43:50;;;;;;;8.43;3.40;;;;;;;10.35;100.00;99815.39;1721277;83;21882;-60
2022/10/04 01:46:20;;;;;;;6.97;2.97;;;;;;;10.29;100.00;99812.23;1721367;83;22010;-60
2022/10/04 01:48:49;;;;;;;9.03;3.72;;;;;;;10.29;100.00;99812.23;1720888;83;22040;-61
2022/10/04 01:51:20;;;;;;;6.73;3.43;;;;;;;10.24;100.00;99812.78;1694559;83;21583;-61
2022/10/04 01:54:07;;;;;;;10.63;4.10;;;;;;;10.19;100.00;99814.67;1721422;83;21410;-60
2022/10/04 01:56:47;;;;;;;10.80;4.53;;;;;;;10.20;100.00;99819.38;1720680;83;21467;-60
2022/10/04 01:59:20;;;;;;;9.33;3.90;;;;;;;10.22;100.00;99825.19;1721324;83;21564;-60
2022/10/04 02:01:58;;;;;;;9.90;3.80;;;;;;;10.23;100.00;99820.30;1720254;83;21049;-61
2022/10/04 02:04:31;;;;;;;8.67;3.80;;;;;;;10.26;100.00;99820.43;1721341;83;22645;-60
2022/10/04 02:06:59;;;;;;;11.87;5.20;;;;;;;10.33;100.00;99818.17;1724346;83;21342;-61
2022/10/04 02:09:33;;;;;;;9.37;4.50;;;;;;;10.55;100.00;99813.67;1724224;82;21680;-61
2022/10/04 02:12:00;;;;;;;11.67;5.00;;;;;;;10.55;100.00;99813.67;1723764;83;21548;-63
2022/10/04 02:14:32;;;;;;;12.53;5.10;;;;;;;10.61;100.00;99812.12;1724534;83;21543;-60
2022/10/04 02:17:00;;;;;;;14.00;4.97;;;;;;;10.81;100.00;99819.51;1702233;83;21612;-61
2022/10/04 02:19:35;;;;;;;11.90;4.87;;;;;;;10.87;100.00;99822.65;1704596;83;20861;-68
2022/10/04 02:22:03;;;;;;;10.93;4.80;;;;;;;10.87;100.00;99822.65;1723822;83;21745;-61
2022/10/04 02:24:32;;;;;;;13.37;5.80;;;;;;;10.94;100.00;99852.13;1723775;83;21666;-61
2022/10/04 02:26:59;;;;;;;9.90;4.57;;;;;;;10.91;100.00;99856.93;1723627;83;21700;-65
2022/10/04 02:29:28;;;;;;;11.57;4.30;;;;;;;10.92;100.00;99863.27;1723541;83;21603;-67
2022/10/04 02:34:40;;;;;;;9.73;4.17;;;;;;;11.12;100.00;99841.67;1723698;83;22078;-61
2022/10/04 02:37:08;;;;;;;9.37;4.40;;;;;;;11.20;100.00;99841.48;1723504;83;22270;-71
2022/10/04 02:39:43;;;;;;;12.47;4.70;;;;;;;11.23;100.00;99841.09;1723732;83;21630;-61
2022/10/04 02:42:39;;;;;;;8.90;4.40;;;;;;;11.31;100.00;99833.08;1723934;83;21659;-61
2022/10/04 02:45:18;;;;;;;9.63;4.20;;;;;;;11.34;100.00;99835.30;1723436;83;21605;-62
2022/10/04 02:47:59;;;;;;;10.00;4.50;;;;;;;11.28;100.00;99842.60;1723904;83;21618;-63
2022/10/04 02:50:34;;;;;;;11.22;4.17;;;;;;;11.27;100.00;99855.36;1724036;83;21626;-65
2022/10/04 02:53:15;;;;;;;10.87;4.63;;;;;;;11.38;100.00;99854.78;1723952;83;21006;-61
2022/10/04 02:55:42;;;;;;;14.43;4.87;;;;;;;11.43;100.00;99858.89;1721215;83;21694;-59
2022/10/04 02:58:10;;;;;;;7.73;4.37;;;;;;;11.59;100.00;99856.91;1723306;83;20936;-71
2022/10/04 03:00:49;;;;;;;7.47;4.37;;;;;;;11.61;100.00;99851.80;1696979;83;21700;-60
2022/10/04 03:03:31;;;;;;;10.10;4.10;;;;;;;11.63;100.00;99849.81;1723634;83;22085;-60
2022/10/04 03:06:09;;;;;;;8.57;4.07;;;;;;;11.68;100.00;99849.20;1707098;83;22189;-59
2022/10/04 03:08:51;;;;;;;11.73;4.33;;;;;;;11.73;100.00;99841.56;1701667;84;22149;-59
2022/10/04 03:11:21;;;;;;;8.25;3.98;;;;;;;11.82;100.00;99848.21;1701241;84;21883;-70
2022/10/04 03:13:53;;;;;;;7.83;3.58;;;;;;;11.84;100.00;99848.83;1701681;84;21035;-59
2022/10/04 03:16:21;;;;;;;8.17;3.63;;;;;;;11.92;100.00;99842.59;1701677;84;21000;-59
2022/10/04 03:18:48;;;;;;;8.50;3.47;;;;;;;11.97;100.00;99851.13;1701611;84;21364;-59
2022/10/04 03:21:16;;;;;;;6.80;3.33;;;;;;;11.95;100.00;99847.93;1700932;84;20985;-65
2022/10/04 03:23:44;;;;;;;10.20;4.37;;;;;;;11.89;100.00;99839.91;1701659;84;22164;-60
2022/10/04 03:26:45;;;;;;;6.60;3.23;;;;;;;11.95;100.00;99847.93;1675827;84;21711;-60
2022/10/04 03:29:14;;;;;;;10.00;3.92;;;;;;;12.00;100.00;99849.42;1701458;84;20972;-60
2022/10/04 03:31:46;;;;;;;5.90;2.60;;;;;;;12.14;100.00;99839.27;1701799;84;21471;-59
2022/10/04 03:34:17;;;;;;;6.00;2.43;;;;;;;12.17;100.00;99844.09;1701750;84;20992;-60
2022/10/04 03:36:45;;;;;;;5.30;2.17;;;;;;;12.20;100.00;99852.01;1701457;84;21230;-72
2022/10/04 03:39:14;;;;;;;5.50;2.90;;;;;;;12.21;100.00;99846.59;1701649;84;22203;-60
2022/10/04 03:41:41;;;;;;;5.23;2.63;;;;;;;12.13;100.00;99845.51;1701554;84;21505;-60
2022/10/04 03:44:15;;;;;;;5.03;2.50;;;;;;;12.27;100.00;99852.80;1701998;84;21553;-59
2022/10/04 03:46:43;;;;;;;5.67;2.50;;;;;;;12.30;100.00;99854.51;1701555;84;20945;-71
2022/10/04 03:49:16;;;;;;;6.33;2.30;;;;;;;12.37;100.00;99853.20;1701872;84;21034;-61
2022/10/04 03:51:46;;;;;;;5.47;2.30;;;;;;;12.32;100.00;99850.41;1701611;84;21569;-60
2022/10/04 03:54:20;;;;;;;6.60;2.30;;;;;;;12.30;100.00;99844.56;1656198;86;21063;-60
2022/10/04 03:56:47;;;;;;;5.10;2.30;;;;;;;12.39;100.00;99848.08;1655901;86;20998;-74
2022/10/04 03:59:17;;;;;;;6.10;2.97;;;;;;;12.31;100.00;99848.30;1656287;86;21164;-60
2022/10/04 04:01:55;;;;;;;6.07;3.10;;;;;;;12.32;100.00;99852.51;1656329;86;21552;-60
2022/10/04 04:04:37;;;;;;;4.73;2.30;;;;;;;12.37;100.00;99854.50;1653524;86;21235;-59
2022/10/04 04:07:13;;;;;;;6.15;2.90;;;;;;;12.39;100.00;99861.14;1656401;86;21413;-60
2022/10/04 04:09:53;;;;;;;31.47;22.87;;;;;;;12.34;100.00;99865.36;1656312;86;21024;-60
2022/10/04 04:12:45;;;;;;;10.23;6.83;;;;;;;12.33;100.00;99850.19;1655681;86;21515;-60
2022/10/04 04:15:13;;;;;;;7.57;4.60;;;;;;;12.30;100.00;99855.02;1655979;86;20994;-60
2022/10/04 04:17:45;;;;;;;11.87;8.70;;;;;;;12.26;100.00;99861.16;1656422;85;21799;-59
2022/10/04 04:20:24;;;;;;;10.60;6.57;;;;;;;12.30;100.00;99881.16;1656049;85;21484;-62
2022/10/04 04:23:02;;;;;;;8.87;4.30;;;;;;;12.29;100.00;99891.31;1656374;86;20994;-62
2022/10/04 04:25:31;;;;;;;9.17;4.97;;;;;;;12.26;100.00;99885.98;1656078;86;20983;-71
2022/10/04 04:28:25;;;;;;;7.10;3.67;;;;;;;12.25;100.00;99889.61;1642838;86;21710;-61
2022/10/04 04:30:59;;;;;;;5.90;2.53;;;;;;;12.20;100.00;99884.67;1620581;86;21248;-60
2022/10/04 04:33:31;;;;;;;6.23;2.23;;;;;;;12.23;100.00;99881.66;1641084;86;20977;-62
2022/10/04 04:36:13;;;;;;;4.70;2.17;;;;;;;12.24;100.00;99881.48;1642828;86;21132;-60
2022/10/04 04:39:32;;;;;;;5.20;2.10;;;;;;;12.43;100.00;99880.34;1616232;88;21063;-60
2022/10/04 04:41:09;;;;;;;5.90;2.77;;;;;;;12.44;100.00;99884.05;1639735;86;21070;-64
2022/10/04 04:43:36;;;;;;;5.40;2.33;;;;;;;12.50;100.00;99883.25;1646242;86;21302;-59
2022/10/04 04:46:04;;;;;;;5.33;2.53;;;;;;;12.53;100.00;99883.32;1621689;86;21073;-61
2022/10/04 04:48:33;;;;;;;7.23;2.77;;;;;;;12.62;100.00;99878.98;1605125;86;21139;-61
2022/10/04 04:51:01;;;;;;;4.97;2.70;;;;;;;12.69;100.00;99878.98;1610320;88;21070;-68
2022/10/04 04:53:29;;;;;;;5.80;2.50;;;;;;;12.83;100.00;99881.82;1650520;86;21498;-59
2022/10/04 04:56:01;;;;;;;7.57;3.10;;;;;;;12.95;100.00;99886.41;1645000;86;21340;-59
2022/10/04 04:58:35;;;;;;;5.53;2.87;;;;;;;13.07;100.00;99884.27;1638846;86;20978;-60
2022/10/04 05:01:10;;;;;;;5.47;3.00;;;;;;;13.17;100.00;99891.66;1640481;86;20962;-67
2022/10/04 05:03:38;;;;;;;5.57;2.50;;;;;;;13.38;100.00;99893.20;1642875;86;21077;-59
2022/10/04 05:06:18;;;;;;;4.70;2.37;;;;;;;13.46;100.00;99896.08;1657357;85;21471;-59
2022/10/04 05:08:49;;;;;;;5.65;2.75;;;;;;;13.46;100.00;99897.39;1650476;86;21231;-69
2022/10/04 05:11:16;;;;;;;3.90;2.10;;;;;;;13.46;100.00;99896.08;1653550;86;22497;-58
2022/10/04 05:13:55;;;;;;;4.70;1.73;;;;;;;13.54;100.00;99897.13;1664025;85;21586;-59
2022/10/04 05:16:28;;;;;;;5.03;2.67;;;;;;;13.58;100.00;99900.94;1658723;86;20980;-65
2022/10/04 05:19:13;;;;;;;4.93;2.17;;;;;;;13.61;100.00;99903.93;1655131;86;21139;-60
2022/10/04 05:21:44;;;;;;;5.13;2.27;;;;;;;13.62;100.00;99903.42;1652967;85;21876;-60
2022/10/04 05:24:32;;;;;;;6.37;2.42;;;;;;;13.57;100.00;99905.38;1654363;86;21044;-60
2022/10/04 05:27:16;;;;;;;5.63;2.87;;;;;;;13.58;100.00;99914.83;1659324;85;20998;-59
2022/10/04 05:30:15;;;;;;;5.33;2.20;;;;;;;13.56;100.00;99914.73;1652144;84;21010;-65
2022/10/04 05:33:01;;;;;;;4.00;2.10;;;;;;;13.52;100.00;99920.89;1666303;85;21585;-61
2022/10/04 05:35:29;;;;;;;7.20;3.63;;;;;;;13.53;100.00;99921.21;1720629;82;21242;-60
2022/10/04 05:38:39;;;;;;;6.07;2.77;;;;;;;13.52;100.00;99917.47;1720779;83;20937;-59
2022/10/04 05:41:27;;;;;;;8.13;3.80;;;;;;;13.55;100.00;99917.86;1720742;83;21083;-59
2022/10/04 05:43:54;;;;;;;5.63;3.47;;;;;;;13.50;100.00;99923.45;1720771;83;20980;-59
2022/10/04 05:46:34;;;;;;;6.33;3.67;;;;;;;13.53;100.00;99927.76;1715969;83;21008;-66
2022/10/04 05:49:07;;;;;;;6.50;3.10;;;;;;;13.56;100.00;99931.75;1710649;83;21249;-60
2022/10/04 05:51:53;;;;;;;7.03;3.97;;;;;;;13.59;100.00;99932.64;1687964;83;21014;-58
2022/10/04 05:54:24;;;;;;;7.60;3.00;;;;;;;13.60;100.00;99932.96;1710530;83;20987;-61
2022/10/04 05:57:28;;;;;;;4.90;2.47;;;;;;;13.59;100.00;99932.64;1710590;83;20941;-59
2022/10/04 06:00:16;;;;;;;6.60;2.80;;;;;;;13.64;100.00;99924.98;1710409;83;21361;-59
2022/10/04 06:03:15;;;;;;;5.93;2.83;;;;;;;13.65;100.00;99932.33;1710467;83;21703;-59
2022/10/04 06:06:03;;;;;;;5.37;2.93;;;;;;;13.80;100.00;99926.28;1648815;86;21063;-59
2022/10/04 06:09:07;;;;;;;5.37;2.57;;;;;;;13.87;100.00;99930.46;1681415;84;20983;-65
2022/10/04 06:12:01;;;;;;;6.07;2.60;;;;;;;13.83;100.00;99932.41;1682025;85;20916;-59
2022/10/04 06:14:36;;;;;;;6.77;2.80;;;;;;;13.92;100.00;99945.54;1681914;85;21062;-59
2022/10/04 06:17:45;;;;;;;5.23;2.83;;;;;;;13.95;100.00;99943.02;1659647;85;21287;-70
2022/10/04 06:20:37;;;;;;;7.67;3.73;;;;;;;14.00;100.00;99937.41;1658066;86;21089;-59
2022/10/04 06:23:17;;;;;;;8.57;3.70;;;;;;;14.04;100.00;99935.17;1625603;86;20944;-59
2022/10/04 06:26:01;;;;;;;6.07;3.30;;;;;;;14.01;100.00;99938.22;1639675;87;21628;-59
2022/10/04 06:28:42;;;;;;;8.40;4.60;;;;;;;14.06;100.00;99935.78;1681308;85;21066;-59
2022/10/04 06:31:27;;;;;;;8.43;4.80;;;;;;;14.14;100.00;99931.58;1681615;85;21334;-59
2022/10/04 06:34:30;;;;;;;7.17;4.00;;;;;;;14.23;100.00;99927.66;1681656;85;20928;-60
2022/10/04 06:37:22;;;;;;;8.20;4.07;;;;;;;14.20;100.00;99935.14;1682121;85;20876;-59
2022/10/04 06:40:25;;;;;;;9.77;4.87;;;;;;;14.21;100.00;99933.64;1704980;83;21482;-59
2022/10/04 06:43:27;;;;;;;7.87;3.80;;;;;;;14.30;100.00;99935.47;1709998;83;20936;-59
2022/10/04 06:46:23;;;;;;;7.83;3.67;;;;;;;14.42;100.00;99935.56;1710288;83;21311;-73
2022/10/04 06:49:08;;;;;;;7.47;3.67;;;;;;;14.48;100.00;99934.72;1710337;83;21032;-58
2022/10/04 06:52:17;;;;;;;8.30;3.93;;;;;;;14.51;100.00;99942.19;1701530;82;20916;-59
2022/10/04 06:54:59;;;;;;;8.57;4.53;;;;;;;14.49;100.00;99940.24;1708022;84;20917;-70
2022/10/04 06:57:34;;;;;;;;;;;;;;;14.54;100.00;99935.17;1710940;84;21008;-61
2022/10/04 07:00:20;;;;;;;5.33;3.13;;;;;;;14.57;100.00;99934.75;1707991;84;21816;-58
2022/10/04 07:03:09;;;;;;;8.80;4.10;;;;;;;14.61;100.00;99942.47;1707455;83;20948;-61
2022/10/04 07:05:53;;;;;;;8.13;3.30;;;;;;;14.72;100.00;99938.33;1707494;83;21012;-59
2022/10/04 07:08:35;;;;;;;6.27;3.23;;;;;;;14.80;100.00;99940.16;1683593;82;21007;-59
2022/10/04 07:11:26;;;;;;;6.00;3.13;;;;;;;14.90;100.00;99932.30;1718244;83;21031;-59
2022/10/04 07:14:16;;;;;;;6.78;3.42;;;;;;;15.00;100.00;99933.39;1700120;84;22159;-58
2022/10/04 07:16:52;;;;;;;7.80;3.70;;;;;;;15.03;100.00;99938.70;1720319;82;21523;-60
2022/10/04 07:19:39;;;;;;;6.80;3.17;;;;;;;15.07;100.00;99945.11;1722514;83;21345;-60
2022/10/04 07:22:14;;;;;;;4.97;2.93;;;;;;;15.11;100.00;99937.08;1723031;83;20993;-59
2022/10/04 07:25:08;;;;;;;5.93;2.67;;;;;;;15.19;100.00;99935.49;1723181;83;20980;-59
2022/10/04 07:31:02;;;;;;;5.97;2.83;;;;;;;15.24;100.00;99942.19;1704665;83;20936;-60
2022/10/04 07:33:35;;;;;;;9.07;3.50;;;;;;;15.34;100.00;99937.70;1710620;83;21000;-59
2022/10/04 07:36:11;;;;;;;7.60;3.17;;;;;;;15.38;100.00;99937.58;1684802;84;21613;-60
2022/10/04 07:38:58;;;;;;;7.27;2.97;;;;;;;15.48;100.00;99934.41;1698320;84;21016;-59
2022/10/04 07:41:34;;;;;;;4.73;2.53;;;;;;;15.74;100.00;99930.12;1698296;84;21550;-59
2022/10/04 07:44:21;;;;;;;5.50;2.70;;;;;;;15.91;100.00;99922.89;1698194;84;22391;-60
2022/10/04 07:46:56;;;;;;;6.30;3.30;;;;;;;16.09;100.00;99929.90;1691862;83;20999;-59
2022/10/04 07:49:24;;;;;;;3.70;2.07;;;;;;;16.40;100.00;99939.29;1707346;83;21051;-59
2022/10/04 07:52:11;;;;;;;5.50;2.20;;;;;;;16.61;100.00;99936.61;1707091;83;21047;-59
2022/10/04 07:54:48;;;;;;;4.00;2.20;;;;;;;17.06;100.00;99933.36;1696727;83;21267;-69
2022/10/04 07:57:23;;;;;;;4.40;1.93;;;;;;;17.83;100.00;99932.94;1709254;83;21040;-59
2022/10/04 08:00:21;;;;;;;3.50;1.83;;;;;;;18.52;100.00;99924.22;1679411;83;21992;-59
2022/10/04 08:03:24;;;;;;;3.67;1.80;;;;;;;19.13;100.00;99925.53;1710421;83;20980;-60
2022/10/04 08:06:26;;;;;;;4.40;1.90;;;;;;;19.84;100.00;99924.14;1710137;83;20992;-59
2022/10/04 08:09:18;;;;;;;2.83;1.30;;;;;;;20.82;100.00;99921.08;1710423;83;21279;-60
2022/10/04 08:11:54;;;;;;;4.17;1.40;;;;;;;21.81;100.00;99916.55;1709944;83;20900;-59
2022/10/04 08:14:36;;;;;;;2.63;1.10;;;;;;;22.51;100.00;99906.92;1710351;83;21583;-73
2022/10/04 08:17:20;;;;;;;3.63;1.27;;;;;;;23.03;100.00;99920.81;1709939;83;21031;-61
2022/10/04 08:20:20;;;;;;;3.50;1.03;;;;;;;23.19;100.00;99918.36;1710563;83;20888;-61
2022/10/04 08:23:09;;;;;;;2.90;1.30;;;;;;;23.16;100.00;99920.77;1710735;83;21164;-62
2022/10/04 08:26:08;;;;;;;2.33;1.33;;;;;;;22.90;100.00;99917.41;1709335;83;20988;-61
2022/10/04 08:32:13;;;;;;;3.67;1.87;;;;;;;22.08;100.00;99921.57;1641131;86;21502;-61
2022/10/04 08:35:07;;;;;;;3.97;1.70;;;;;;;21.42;100.00;99920.23;1653036;86;22184;-61
2022/10/04 08:38:13;;;;;;;5.60;1.60;;;;;;;21.13;100.00;99916.14;1641559;87;22239;-60
2022/10/04 08:41:17;;;;;;;2.27;1.50;;;;;;;21.15;100.00;99915.91;1704729;82;20976;-60
2022/10/04 08:44:16;;;;;;;4.20;1.70;;;;;;;21.26;100.00;99918.05;1709291;83;20948;-60
2022/10/04 08:47:20;;;;;;;2.20;1.30;;;;;;;21.44;100.00;99910.14;1709264;83;21621;-61
2022/10/04 08:50:09;;;;;;;3.97;1.77;;;;;;;21.50;100.00;99901.94;1710262;83;20929;-71
2022/10/04 08:53:15;;;;;;;3.90;1.40;;;;;;;21.60;100.00;99909.91;1710291;83;22673;-61
2022/10/04 08:56:18;;;;;;;4.17;1.50;;;;;;;21.75;100.00;99905.69;1710528;83;21058;-61
2022/10/04 08:59:12;;;;;;;2.63;1.50;;;;;;;22.25;100.00;99899.55;1710081;83;20964;-61
2022/10/04 09:02:10;;;;;;;3.47;1.50;;;;;;;22.73;100.00;99909.75;1710616;83;21019;-61
2022/10/04 09:05:08;;;;;;;2.60;1.40;;;;;;;23.10;100.00;99906.69;1710366;83;20980;-61
2022/10/04 09:08:10;;;;;;;3.37;1.60;;;;;;;23.21;100.00;99910.09;1704005;83;21869;-64
2022/10/04 09:10:59;;;;;;;4.73;2.00;;;;;;;23.08;100.00;99908.05;1700097;84;20877;-62
2022/10/04 09:14:07;;;;;;;4.30;2.67;;;;;;;22.93;100.00;99916.90;1700212;84;21629;-60
2022/10/04 09:16:50;;;;;;;6.10;4.60;;;;;;;22.75;100.00;99923.58;1700095;84;22283;-60
2022/10/04 09:19:53;;;;;;;8.40;5.60;;;;;;;22.45;100.00;99918.62;1699980;84;21439;-60
2022/10/04 09:22:31;;;;;;;7.30;4.90;;;;;;;22.20;100.00;99923.97;1700119;84;21167;-61
2022/10/04 09:25:29;;;;;;;8.00;5.30;;;;;;;22.10;100.00;99918.13;1683840;84;21016;-59
2022/10/04 09:28:37;;;;;;;5.50;2.97;;;;;;;21.98;100.00;99918.95;1700108;84;21142;-60
2022/10/04 09:31:49;;;;;;;3.50;1.60;;;;;;;21.68;100.00;99925.05;1700105;84;21004;-59
2022/10/04 09:34:53;;;;;;;2.87;1.60;;;;;;;21.46;100.00;99922.63;1699945;84;21012;-59
2022/10/04 09:37:44;;;;;;;1.90;1.20;;;;;;;21.36;100.00;99929.48;1695693;84;21275;-65
2022/10/04 09:40:39;;;;;;;2.27;1.43;;;;;;;21.61;100.00;99922.11;1666680;85;21055;-60
2022/10/04 09:43:18;;;;;;;2.07;1.10;;;;;;;22.09;100.00;99927.95;1634500;86;21103;-61
2022/10/04 09:46:28;;;;;;;2.47;1.27;;;;;;;22.36;100.00;99910.95;1607830;86;20974;-59
2022/10/04 09:49:04;;;;;;;2.02;1.37;;;;;;;22.47;100.00;99921.02;1625207;88;21175;-60
2022/10/04 09:52:12;;;;;;;2.17;1.13;;;;;;;22.43;100.00;99924.75;1624677;88;21202;-59
2022/10/04 09:55:03;;;;;;;4.73;1.10;;;;;;;22.20;100.00;99924.80;1625199;88;22305;-59
2022/10/04 09:58:12;;;;;;;1.77;1.00;;;;;;;21.81;100.00;99929.81;1625173;88;21056;-65
2022/10/04 10:01:11;;;;;;;1.80;0.90;;;;;;;21.48;100.00;99934.57;1625727;88;20977;-59
2022/10/04 10:03:53;;;;;;;2.07;0.90;;;;;;;21.49;100.00;99932.71;1625687;88;20910;-60
2022/10/04 10:06:48;;;;;;;2.83;1.03;;;;;;;21.94;100.00;99930.63;1627333;86;21440;-62
2022/10/04 10:15:58;;;;;;;2.37;0.73;;;;;;;22.71;89.99;99931.83;1652324;86;21010;-66
2022/10/04 10:18:33;;;;;;;1.57;0.70;;;;;;;22.50;84.37;99932.41;1646612;86;20991;-59
2022/10/04 10:21:11;;;;;;;1.63;0.70;;;;;;;22.40;85.96;99934.58;1623160;87;22427;-59
2022/10/04 10:24:15;;;;;;;1.20;0.70;;;;;;;22.52;80.63;99932.41;1651905;86;20964;-64
2022/10/04 10:27:14;;;;;;;2.53;0.70;;;;;;;22.82;77.62;99934.72;1620871;88;21073;-59
2022/10/04 10:30:20;;;;;;;1.00;0.60;;;;;;;23.23;73.53;99931.91;1623702;88;21007;-67
2022/10/04 10:33:11;;;;;;;1.83;0.70;;;;;;;23.38;74.69;99931.81;1615696;88;21519;-58
2022/10/04 10:36:11;;;;;;;1.33;0.60;;;;;;;23.57;64.82;99929.83;1612051;88;21525;-60
2022/10/04 10:39:01;;;;;;;1.40;0.70;;;;;;;23.51;60.79;99926.39;1626473;87;21547;-58
2022/10/04 10:41:48;;;;;;;1.03;0.60;;;;;;;23.40;61.83;99926.20;1651691;86;20961;-58
2022/10/04 10:44:25;;;;;;;1.87;0.70;;;;;;;23.32;61.12;99927.58;1623118;86;21043;-61
2022/10/04 10:47:07;;;;;;;2.50;1.27;;;;;;;23.32;62.17;99938.22;1652723;85;21078;-57
2022/10/04 10:49:43;;;;;;;2.27;0.90;;;;;;;23.24;60.81;99932.95;1652328;86;21154;-58
2022/10/04 10:52:38;;;;;;;1.80;0.90;;;;;;;22.97;60.40;99936.55;1610307;86;21478;-59
2022/10/04 10:55:48;;;;;;;2.30;1.03;;;;;;;22.50;61.70;99935.89;1652430;86;21056;-57
2022/10/04 10:58:35;;;;;;;1.40;0.70;;;;;;;22.31;67.44;99942.81;1652429;86;21008;-57
2022/10/04 11:01:46;;;;;;;2.13;0.70;;;;;;;22.42;66.78;99935.09;1618506;86;21133;-57
2022/10/04 11:04:34;;;;;;;2.02;1.00;;;;;;;22.55;67.10;99933.75;1652411;86;21185;-57
2022/10/04 11:07:28;;;;;;;1.60;0.90;;;;;;;22.94;69.44;99941.86;1629948;85;21039;-58
2022/10/04 11:10:34;;;;;;;1.40;0.77;;;;;;;23.35;65.10;99948.85;1654809;85;21075;-58
2022/10/04 11:13:27;;;;;;;1.37;0.77;;;;;;;23.42;62.63;99943.48;1676216;85;21080;-58
2022/10/04 11:16:39;;;;;;;1.87;0.90;;;;;;;23.16;64.48;99948.15;1675318;85;20990;-57
2022/10/04 11:19:37;;;;;;;1.82;0.60;;;;;;;22.71;66.96;99952.55;1652573;86;21282;-57
2022/10/04 11:22:45;;;;;;;1.47;0.53;;;;;;;22.18;68.12;99957.97;1642783;85;21700;-57
2022/10/04 11:25:33;;;;;;;1.80;0.70;;;;;;;21.70;68.21;99952.09;1676619;85;21024;-57
2022/10/04 11:28:26;;;;;;;1.57;0.60;;;;;;;21.18;72.66;99955.14;1710171;83;20979;-57
2022/10/04 11:31:27;;;;;;;1.40;0.77;;;;;;;21.05;80.77;99964.36;1710369;83;20989;-58
2022/10/04 11:34:50;;;;;;;1.30;0.60;;;;;;;21.28;81.96;99958.34;1710275;83;22271;-58
2022/10/04 11:37:37;;;;;;;1.43;0.57;;;;;;;21.50;80.51;99951.53;1710326;83;21023;-59
2022/10/04 11:40:49;;;;;;;1.07;0.53;;;;;;;21.92;73.07;99955.29;1710874;83;20991;-58
2022/10/04 11:43:40;;;;;;;2.07;1.00;;;;;;;22.16;64.98;99949.47;1710578;83;21074;-58
2022/10/04 11:46:21;;;;;;;4.87;1.45;;;;;;;22.28;61.91;99956.11;1710622;83;22463;-59
2022/10/04 11:48:57;;;;;;;;;;;;;;;22.32;61.89;99959.03;1713022;83;21873;-58
2022/10/04 11:52:03;;;;;;;2.10;1.20;;;;;;;22.33;62.19;99959.28;1709913;83;20090;-58
2022/10/04 11:54:50;;;;;;;2.60;1.10;;;;;;;22.02;61.02;99966.45;1710380;83;21389;-64
2022/10/04 11:57:51;;;;;;;1.67;0.93;;;;;;;21.68;66.00;99968.28;1710575;83;21333;-58
2022/10/04 12:00:21;;;;;;;3.47;1.20;;;;;;;21.45;65.49;99966.91;1707404;83;21499;-58
2022/10/04 12:03:22;;;;;;;1.93;0.83;;;;;;;21.36;71.98;99968.47;1710705;83;21258;-58
2022/10/04 12:06:25;;;;;;;2.87;1.30;;;;;;;21.32;72.50;99972.13;1709781;83;21023;-59
2022/10/04 12:09:18;;;;;;;1.70;0.90;;;;;;;21.16;77.53;99971.03;1712439;83;21126;-59
2022/10/04 12:15:35;;;;;;;3.63;0.90;;;;;;;21.21;79.98;99965.73;1707081;83;21460;-58
2022/10/04 12:18:47;;;;;;;1.23;0.70;;;;;;;21.29;72.59;99969.20;1687261;83;21172;-59
2022/10/04 12:21:40;;;;;;;1.50;0.70;;;;;;;21.20;73.61;99975.55;1686910;85;21528;-57
2022/10/04 12:25:01;;;;;;;2.43;0.90;;;;;;;21.11;73.84;99981.09;1686312;85;20947;-57
2022/10/04 12:27:43;;;;;;;1.67;0.72;;;;;;;20.91;77.14;99983.13;1687449;84;20896;-57
2022/10/04 12:31:03;;;;;;;1.43;0.60;;;;;;;20.82;79.22;99980.69;1687564;84;21552;-57
2022/10/04 12:33:47;;;;;;;1.73;0.60;;;;;;;20.71;74.61;99985.13;1687318;84;22438;-58
2022/10/04 12:36:57;;;;;;;2.17;0.97;;;;;;;20.36;74.68;99979.84;1707558;82;20992;-58
2022/10/04 12:39:51;;;;;;;1.73;0.80;;;;;;;20.09;77.84;99988.38;1706179;82;21015;-59
2022/10/04 12:42:41;;;;;;;1.27;0.57;;;;;;;19.79;79.47;99991.55;1711930;83;22378;-58
2022/10/04 12:45:31;;;;;;;1.87;0.70;;;;;;;19.62;84.32;99987.67;1721214;82;21098;-59
2022/10/04 12:48:47;;;;;;;2.50;0.80;;;;;;;19.63;91.35;99994.05;1721502;83;21327;-59
2022/10/04 12:51:42;;;;;;;1.67;1.00;;;;;;;19.84;96.93;99984.45;1721421;82;22365;-58
2022/10/04 12:54:17;;;;;;;1.90;0.70;;;;;;;20.17;97.08;99991.88;1687704;83;21501;-58
2022/10/04 12:57:05;;;;;;;2.03;0.70;;;;;;;20.33;88.64;99990.14;1721464;82;21031;-58
2022/10/04 13:00:16;;;;;;;2.37;0.70;;;;;;;20.43;87.80;99993.41;1707738;83;20987;-58
2022/10/04 13:02:56;;;;;;;1.20;0.60;;;;;;;20.54;86.61;99989.27;1721424;82;21458;-58
2022/10/04 13:05:30;;;;;;;1.27;0.70;;;;;;;20.69;82.34;99996.52;1720635;82;21497;-59